sensor_id;sensor_type;location;lat;lon;timestamp;P1;durP1;ratioP1;P2;durP2;ratioP2
56063;SDS011;41940;52.880;13.012;2022-11-15T09:31:14;109.30;;;54.03;;
56063;SDS011;41940;52.880;13.012;2022-11-15T09:33:42;114.72;;;50.95;;
56063;SDS011;41940;52.880;13.012;2022-11-15T09:36:09;126.40;;;62.08;;
56063;SDS011;41940;52.880;13.012;2022-11-15T09:38:35;114.90;;;56.88;;
56063;SDS011;41940;52.880;13.012;2022-11-15T09:41:17;122.72;;;59.75;;
56063;SDS011;41940;52.880;13.012;2022-11-15T09:44:16;132.13;;;62.00;;
56063;SDS011;41940;52.880;13.012;2022-11-15T09:46:56;126.68;;;60.08;;
56063;SDS011;41940;52.880;13.012;2022-11-15T09:49:28;122.55;;;55.28;;
56063;SDS011;41940;52.880;13.012;2022-11-15T09:51:56;133.88;;;62.75;;
56063;SDS011;41940;52.880;13.012;2022-11-15T09:57:01;131.93;;;64.20;;
56063;SDS011;41940;52.880;13.012;2022-11-15T10:05:17;154.38;;;68.97;;
56063;SDS011;41940;52.880;13.012;2022-11-15T10:08:10;151.25;;;65.80;;
56063;SDS011;41940;52.880;13.012;2022-11-15T10:10:59;175.85;;;78.63;;
56063;SDS011;41940;52.880;13.012;2022-11-15T10:13:28;148.65;;;69.80;;
56063;SDS011;41940;52.880;13.012;2022-11-15T10:16:00;176.02;;;74.18;;
56063;SDS011;41940;52.880;13.012;2022-11-15T10:21:26;174.93;;;73.85;;
56063;SDS011;41940;52.880;13.012;2022-11-15T10:24:13;198.35;;;85.60;;
56063;SDS011;41940;52.880;13.012;2022-11-15T10:26:48;182.40;;;75.30;;
56063;SDS011;41940;52.880;13.012;2022-11-15T10:29:18;190.75;;;81.57;;
56063;SDS011;41940;52.880;13.012;2022-11-15T10:31:45;199.25;;;83.78;;
56063;SDS011;41940;52.880;13.012;2022-11-15T10:37:01;181.68;;;82.10;;
56063;SDS011;41940;52.880;13.012;2022-11-15T10:39:27;189.20;;;79.70;;
56063;SDS011;41940;52.880;13.012;2022-11-15T10:41:53;177.70;;;76.53;;
56063;SDS011;41940;52.880;13.012;2022-11-15T10:44:21;173.18;;;74.65;;
56063;SDS011;41940;52.880;13.012;2022-11-15T10:49:22;169.98;;;75.78;;
56063;SDS011;41940;52.880;13.012;2022-11-15T10:54:30;162.68;;;70.38;;
56063;SDS011;41940;52.880;13.012;2022-11-15T10:57:04;158.98;;;72.28;;
56063;SDS011;41940;52.880;13.012;2022-11-15T10:59:36;172.25;;;77.13;;
56063;SDS011;41940;52.880;13.012;2022-11-15T11:02:20;159.20;;;70.82;;
56063;SDS011;41940;52.880;13.012;2022-11-15T11:05:31;162.70;;;68.10;;
56063;SDS011;41940;52.880;13.012;2022-11-15T11:08:09;145.30;;;66.28;;
56063;SDS011;41940;52.880;13.012;2022-11-15T11:10:56;128.63;;;65.05;;
56063;SDS011;41940;52.880;13.012;2022-11-15T11:13:24;156.25;;;66.43;;
56063;SDS011;41940;52.880;13.012;2022-11-15T11:15:56;125.10;;;61.80;;
56063;SDS011;41940;52.880;13.012;2022-11-15T11:18:54;120.70;;;58.97;;
56063;SDS011;41940;52.880;13.012;2022-11-15T11:24:22;108.85;;;56.00;;
56063;SDS011;41940;52.880;13.012;2022-11-15T11:30:08;87.10;;;48.33;;
56063;SDS011;41940;52.880;13.012;2022-11-15T11:43:52;72.90;;;41.97;;
56063;SDS011;41940;52.880;13.012;2022-11-15T11:46:56;72.57;;;39.95;;
56063;SDS011;41940;52.880;13.012;2022-11-15T11:49:32;61.25;;;34.75;;
56063;SDS011;41940;52.880;13.012;2022-11-15T11:52:28;68.53;;;36.47;;
56063;SDS011;41940;52.880;13.012;2022-11-15T11:57:33;59.22;;;34.53;;
56063;SDS011;41940;52.880;13.012;2022-11-15T12:00:21;60.00;;;34.35;;
56063;SDS011;41940;52.880;13.012;2022-11-15T12:05:35;57.35;;;30.77;;
56063;SDS011;41940;52.880;13.012;2022-11-15T12:10:57;52.10;;;27.65;;
56063;SDS011;41940;52.880;13.012;2022-11-15T12:13:29;50.15;;;32.15;;
56063;SDS011;41940;52.880;13.012;2022-11-15T12:16:02;55.80;;;32.03;;
56063;SDS011;41940;52.880;13.012;2022-11-15T12:18:31;37.97;;;25.38;;
56063;SDS011;41940;52.880;13.012;2022-11-15T12:21:00;42.58;;;25.45;;
56063;SDS011;41940;52.880;13.012;2022-11-15T12:23:34;42.80;;;26.02;;
56063;SDS011;41940;52.880;13.012;2022-11-15T12:26:10;49.67;;;27.38;;
56063;SDS011;41940;52.880;13.012;2022-11-15T12:28:44;39.72;;;25.73;;
56063;SDS011;41940;52.880;13.012;2022-11-15T12:31:15;39.03;;;22.80;;
56063;SDS011;41940;52.880;13.012;2022-11-15T12:33:46;40.65;;;25.52;;
56063;SDS011;41940;52.880;13.012;2022-11-15T12:41:34;47.95;;;23.63;;
56063;SDS011;41940;52.880;13.012;2022-11-15T12:44:02;34.08;;;22.98;;
56063;SDS011;41940;52.880;13.012;2022-11-15T12:48:58;42.88;;;24.85;;
56063;SDS011;41940;52.880;13.012;2022-11-15T12:59:47;35.45;;;23.65;;
56063;SDS011;41940;52.880;13.012;2022-11-15T13:17:39;36.22;;;22.15;;
56063;SDS011;41940;52.880;13.012;2022-11-15T13:28:33;37.67;;;23.65;;
56063;SDS011;41940;52.880;13.012;2022-11-15T13:33:43;26.40;;;20.50;;
56063;SDS011;41940;52.880;13.012;2022-11-15T13:36:15;32.90;;;20.77;;
56063;SDS011;41940;52.880;13.012;2022-11-15T13:38:53;28.60;;;20.10;;
56063;SDS011;41940;52.880;13.012;2022-11-15T13:41:31;27.33;;;20.10;;
56063;SDS011;41940;52.880;13.012;2022-11-15T13:43:58;29.35;;;21.23;;
56063;SDS011;41940;52.880;13.012;2022-11-15T13:46:29;33.80;;;21.80;;
56063;SDS011;41940;52.880;13.012;2022-11-15T13:51:37;32.20;;;23.95;;
56063;SDS011;41940;52.880;13.012;2022-11-15T13:56:57;40.90;;;23.52;;
56063;SDS011;41940;52.880;13.012;2022-11-15T13:59:30;28.98;;;22.33;;
56063;SDS011;41940;52.880;13.012;2022-11-15T14:02:03;31.58;;;21.63;;
56063;SDS011;41940;52.880;13.012;2022-11-15T14:04:51;33.20;;;24.05;;
56063;SDS011;41940;52.880;13.012;2022-11-15T14:07:21;34.05;;;23.10;;
56063;SDS011;41940;52.880;13.012;2022-11-15T14:09:48;36.05;;;21.33;;
56063;SDS011;41940;52.880;13.012;2022-11-15T14:12:22;27.80;;;21.42;;
56063;SDS011;41940;52.880;13.012;2022-11-15T14:15:00;28.42;;;22.50;;
56063;SDS011;41940;52.880;13.012;2022-11-15T14:17:42;26.38;;;19.67;;
56063;SDS011;41940;52.880;13.012;2022-11-15T14:22:59;24.27;;;19.20;;
56063;SDS011;41940;52.880;13.012;2022-11-15T14:25:27;30.23;;;21.00;;
56063;SDS011;41940;52.880;13.012;2022-11-15T14:28:14;26.85;;;20.17;;
56063;SDS011;41940;52.880;13.012;2022-11-15T14:30:55;27.65;;;20.42;;
56063;SDS011;41940;52.880;13.012;2022-11-15T14:35:53;33.13;;;22.38;;
56063;SDS011;41940;52.880;13.012;2022-11-15T14:38:21;32.10;;;21.02;;
56063;SDS011;41940;52.880;13.012;2022-11-15T14:40:46;33.25;;;21.08;;
56063;SDS011;41940;52.880;13.012;2022-11-15T14:43:12;47.70;;;22.27;;
56063;SDS011;41940;52.880;13.012;2022-11-15T14:45:38;30.10;;;21.15;;
56063;SDS011;41940;52.880;13.012;2022-11-15T14:48:04;41.78;;;22.33;;
56063;SDS011;41940;52.880;13.012;2022-11-15T14:50:33;33.55;;;23.55;;
56063;SDS011;41940;52.880;13.012;2022-11-15T14:53:00;29.88;;;21.58;;
